This is the latest recevied weather packets stored in our database for station/object DN9EM-2. If no packets are shown the sender has not sent any weather packets the latest 10 day(s).
| Time | Temp. | Humidity | Pressure | Rain* | Wind** | Luminosity | Snow |
|---|---|---|---|---|---|---|---|
| 1777919467 | 12.78° C | 80% | 1014.4 hPa | 0 mm | - | - | - |
| 1777918864 | 12.78° C | 79% | 1014.4 hPa | 0 mm | - | - | - |
| 1777918262 | 12.78° C | 78% | 1014.4 hPa | 0 mm | - | - | - |
| 1777917659 | 13.33° C | 78% | 1014.4 hPa | 0 mm | - | - | - |
| 1777917057 | 13.33° C | 78% | 1014.5 hPa | 0 mm | - | - | - |
| 1777916454 | 13.33° C | 78% | 1014.3 hPa | 0 mm | - | - | - |
| 1777915851 | 13.33° C | 78% | 1014.4 hPa | 0 mm | - | - | - |
| 1777915249 | 13.89° C | 78% | 1014.5 hPa | 0 mm | - | - | - |
| 1777914646 | 13.89° C | 77% | 1014.3 hPa | 0 mm | - | - | - |
| 1777914043 | 13.89° C | 77% | 1014.4 hPa | 0 mm | - | - | - |
| 1777913441 | 13.89° C | 76% | 1014.5 hPa | 0 mm | - | - | - |
| 1777912838 | 13.89° C | 77% | 1014.6 hPa | 0 mm | - | - | - |
| 1777912236 | 13.89° C | 75% | 1014.6 hPa | 0 mm | - | - | - |
| 1777911633 | 14.44° C | 75% | 1014.6 hPa | 0 mm | - | - | - |
| 1777911030 | 14.44° C | 75% | 1014.7 hPa | 0 mm | - | - | - |
| 1777910428 | 15° C | 72% | 1014.7 hPa | 0 mm | - | - | - |
| 1777909825 | 15.56° C | 71% | 1014.8 hPa | 0 mm | - | - | - |
| 1777909223 | 15.56° C | 71% | 1015 hPa | 0 mm | - | - | - |
| 1777908620 | 15.56° C | 71% | 1015 hPa | 0 mm | - | - | - |
| 1777908017 | 15° C | 72% | 1015.2 hPa | 0 mm | - | - | - |
| 1777907415 | 16.11° C | 70% | 1015.2 hPa | 0 mm | - | - | - |
| 1777906872 | 15.56° C | 71% | 1015.3 hPa | 0 mm | - | - | - |
| 1777906270 | 15.56° C | 71% | 1015.3 hPa | 0 mm | - | - | - |
| 1777905667 | 15.56° C | 70% | 1015.3 hPa | 0 mm | - | - | - |
| 1777905065 | 15° C | 72% | 1015.5 hPa | 0 mm | - | - | - |
* Rain latest hour (hover to see other rain measurements)
** Current wind speed in m/s (hover to see current wind gust speed)